Time;durP1;ratioP1;P1;durP2;ratioP2;P2;SDS_P1;SDS_P2;PMS_P1;PMS_P2;Temp;Humidity;BMP_temperature;BMP_pressure;BME280_temperature;BME280_humidity;BME280_pressure;Samples;Min_cycle;Max_cycle;Signal;HPM_P1;HPM_P2
2023/06/17 00:00:37;;;;;;;6.90;5.40;;;;;;;13.76;56.51;101450.34;5046248;28;20033;-75
2023/06/17 00:03:02;;;;;;;6.43;5.50;;;;;;;13.68;56.43;101452.41;5045340;28;20025;-75
2023/06/17 00:05:28;;;;;;;8.10;5.85;;;;;;;13.59;56.77;101438.22;5046976;28;20024;-75
2023/06/17 00:07:53;;;;;;;7.15;5.50;;;;;;;13.55;56.97;101443.16;5045353;28;20033;-75
2023/06/17 00:10:18;;;;;;;6.47;5.45;;;;;;;13.53;57.18;101439.00;5047430;28;20039;-75
2023/06/17 00:12:44;;;;;;;5.90;5.30;;;;;;;13.53;57.10;101436.31;5049126;28;20209;-75
2023/06/17 00:15:13;;;;;;;6.05;5.32;;;;;;;13.50;56.82;101429.44;5050619;28;20040;-75
2023/06/17 00:17:40;;;;;;;7.32;5.88;;;;;;;13.49;57.30;101431.28;5049274;28;20432;-75
2023/06/17 00:20:11;;;;;;;6.38;5.32;;;;;;;13.45;57.12;101421.91;5050456;28;20052;-75
2023/06/17 00:22:36;;;;;;;7.22;5.68;;;;;;;13.43;57.34;101423.97;5051909;28;20033;-74
2023/06/17 00:25:02;;;;;;;6.65;5.07;;;;;;;13.37;58.29;101424.78;5049580;28;20031;-74
2023/06/17 00:27:28;;;;;;;7.22;6.53;;;;;;;13.32;58.74;101419.97;5049538;28;20061;-75
2023/06/17 00:29:53;;;;;;;7.22;6.50;;;;;;;13.33;58.82;101421.63;5051717;28;20048;-75
2023/06/17 00:32:19;;;;;;;6.82;6.00;;;;;;;13.28;59.59;101416.00;5051864;28;20037;-75
2023/06/17 00:34:44;;;;;;;7.82;6.63;;;;;;;13.25;59.98;101418.25;5051275;28;20043;-75
2023/06/17 00:37:10;;;;;;;8.98;6.88;;;;;;;13.19;59.81;101423.44;5050269;28;20028;-75
2023/06/17 00:39:35;;;;;;;9.70;7.15;;;;;;;13.13;60.07;101412.59;5049166;28;20045;-75
2023/06/17 00:42:06;;;;;;;11.77;8.35;;;;;;;13.11;60.30;101415.47;5050044;28;20032;-75
2023/06/17 00:44:31;;;;;;;10.15;8.07;;;;;;;13.02;61.23;101422.09;5051083;28;20111;-75
2023/06/17 00:46:57;;;;;;;10.57;7.95;;;;;;;12.96;61.31;101422.88;5043726;28;20048;-75
2023/06/17 00:49:26;;;;;;;10.15;7.07;;;;;;;12.87;61.56;101423.06;5029665;28;20037;-76
2023/06/17 00:51:53;;;;;;;11.25;7.88;;;;;;;12.81;61.80;101423.84;5015778;28;20025;-75
2023/06/17 00:54:18;;;;;;;8.48;7.55;;;;;;;12.76;62.08;101420.06;5033054;28;20115;-75
2023/06/17 00:56:44;;;;;;;10.77;7.85;;;;;;;12.66;62.48;101415.84;5025179;28;20013;-75
2023/06/17 00:59:09;;;;;;;9.63;7.88;;;;;;;12.58;62.87;101419.53;5051807;28;20085;-75
2023/06/17 01:01:37;;;;;;;8.73;7.15;;;;;;;12.52;63.06;101409.53;5033656;28;20443;-75
2023/06/17 01:04:04;;;;;;;9.65;7.60;;;;;;;12.53;63.57;101413.03;5049583;28;20455;-75
2023/06/17 01:06:40;;;;;;;8.73;7.03;;;;;;;12.50;63.39;101411.59;5042823;28;20033;-76
2023/06/17 01:09:09;;;;;;;11.35;7.60;;;;;;;12.42;63.72;101411.72;5026256;28;20123;-75
2023/06/17 01:11:40;;;;;;;11.20;8.50;;;;;;;12.31;64.23;101409.56;5018129;28;20372;-75
2023/06/17 01:14:08;;;;;;;10.93;9.27;;;;;;;12.25;64.46;101409.28;5047048;28;20066;-76
2023/06/17 01:16:33;;;;;;;11.65;9.00;;;;;;;12.20;65.12;101402.81;5013744;28;20357;-74
2023/06/17 01:18:59;;;;;;;11.10;8.27;;;;;;;12.16;64.83;101401.53;5023488;28;20025;-74
2023/06/17 01:21:31;;;;;;;11.30;8.90;;;;;;;12.09;65.96;101401.47;5029718;28;20049;-74
2023/06/17 01:23:58;;;;;;;9.90;8.13;;;;;;;11.99;66.52;101399.09;5020716;28;20086;-75
2023/06/17 01:26:24;;;;;;;12.00;8.68;;;;;;;11.91;66.54;101410.81;5049725;28;20507;-75
2023/06/17 01:28:49;;;;;;;8.45;7.20;;;;;;;11.93;66.21;101403.38;5051467;28;20106;-73
2023/06/17 01:31:18;;;;;;;9.75;7.80;;;;;;;11.91;67.06;101405.41;5048489;28;20427;-74
2023/06/17 01:33:45;;;;;;;9.07;8.02;;;;;;;11.87;66.81;101408.69;5048685;28;20025;-74
2023/06/17 01:36:25;;;;;;;9.32;7.68;;;;;;;11.80;67.23;101404.06;5027374;28;20037;-74
2023/06/17 01:38:51;;;;;;;9.95;7.90;;;;;;;11.72;67.35;101403.34;5026066;28;20013;-74
2023/06/17 01:41:26;;;;;;;11.30;8.45;;;;;;;11.69;68.04;101412.66;5031024;28;20499;-74
2023/06/17 01:43:52;;;;;;;10.70;8.45;;;;;;;11.70;68.15;101413.47;5048308;28;20051;-75
2023/06/17 01:46:17;;;;;;;8.77;7.85;;;;;;;11.65;68.05;101414.88;5010723;28;20570;-75
2023/06/17 01:48:42;;;;;;;12.27;9.95;;;;;;;11.60;68.49;101425.44;5030401;28;20440;-74
2023/06/17 01:51:08;;;;;;;12.02;9.45;;;;;;;11.53;68.67;101422.66;5013604;28;20189;-74
2023/06/17 01:53:33;;;;;;;10.70;9.60;;;;;;;11.49;69.44;101420.50;5050170;28;20024;-74
2023/06/17 01:55:58;;;;;;;10.65;8.48;;;;;;;11.41;69.63;101409.84;5048106;28;20036;-74
2023/06/17 01:58:24;;;;;;;11.18;9.38;;;;;;;11.44;69.67;101409.47;5026090;28;20473;-75
2023/06/17 02:00:52;;;;;;;10.80;9.38;;;;;;;11.38;70.00;101411.88;5049803;28;20021;-75
2023/06/17 02:03:21;;;;;;;12.15;9.63;;;;;;;11.49;69.94;101412.41;5049437;28;20025;-75
2023/06/17 02:05:46;;;;;;;11.30;9.63;;;;;;;11.54;70.12;101415.38;5046761;28;20470;-75
2023/06/17 02:08:15;;;;;;;12.55;9.75;;;;;;;11.63;69.97;101422.34;5046316;28;20025;-75
2023/06/17 02:10:41;;;;;;;12.02;9.77;;;;;;;11.61;69.80;101426.25;5048692;28;20044;-75
2023/06/17 02:13:09;;;;;;;12.60;9.93;;;;;;;11.56;69.72;101423.31;5050237;28;20477;-75
2023/06/17 02:15:38;;;;;;;12.52;10.20;;;;;;;11.46;69.52;101420.91;5048886;28;20033;-75
2023/06/17 02:18:04;;;;;;;12.57;9.93;;;;;;;11.31;70.10;101416.34;5044016;28;20411;-75
2023/06/17 02:20:29;;;;;;;15.75;11.45;;;;;;;11.19;70.50;101416.03;5050466;28;20074;-75
2023/06/17 02:22:55;;;;;;;13.70;11.57;;;;;;;11.02;71.42;101401.88;5048411;28;20029;-75
2023/06/17 02:25:20;;;;;;;12.38;10.10;;;;;;;10.94;71.36;101407.38;5045878;28;20021;-75
2023/06/17 02:27:45;;;;;;;12.07;10.73;;;;;;;10.92;71.63;101417.50;5040855;28;20023;-76
2023/06/17 02:30:11;;;;;;;12.93;11.10;;;;;;;10.92;72.63;101414.81;5048397;28;20023;-74
2023/06/17 02:32:37;;;;;;;13.30;10.02;;;;;;;10.92;72.17;101415.63;5048647;28;20376;-75
2023/06/17 02:35:02;;;;;;;11.50;10.30;;;;;;;10.88;71.83;101417.03;5047409;28;20069;-74
2023/06/17 02:37:28;;;;;;;14.10;11.32;;;;;;;10.83;72.03;101413.22;5048401;28;20037;-74
2023/06/17 02:39:53;;;;;;;17.67;11.52;;;;;;;10.79;72.09;101406.50;5041847;28;20035;-74
2023/06/17 02:42:19;;;;;;;13.50;11.60;;;;;;;10.74;72.74;101407.94;5031193;28;20021;-74
2023/06/17 02:44:44;;;;;;;15.43;11.27;;;;;;;10.71;72.85;101413.69;5046383;28;20041;-74
2023/06/17 02:47:10;;;;;;;15.80;11.88;;;;;;;10.73;72.85;101411.66;5050135;28;20029;-74
2023/06/17 02:49:35;;;;;;;16.42;12.48;;;;;;;10.87;72.80;101409.13;5045026;28;20044;-73
2023/06/17 02:52:00;;;;;;;15.45;12.52;;;;;;;10.74;72.82;101399.84;5049828;28;20029;-73
2023/06/17 02:54:26;;;;;;;18.27;12.85;;;;;;;10.71;73.49;101400.22;5048043;28;20261;-74
2023/06/17 02:56:57;;;;;;;15.55;12.75;;;;;;;10.64;73.40;101404.66;5049639;28;20037;-74
2023/06/17 02:59:23;;;;;;;14.60;11.75;;;;;;;10.57;73.63;101403.72;5050481;28;20036;-74
2023/06/17 03:01:48;;;;;;;17.17;11.95;;;;;;;10.53;73.93;101392.47;5044119;28;20025;-74
2023/06/17 03:04:14;;;;;;;12.52;10.68;;;;;;;10.44;74.29;101397.09;5047891;28;20022;-73
2023/06/17 03:06:41;;;;;;;14.35;11.18;;;;;;;10.39;74.09;101398.66;5044959;28;20481;-74
2023/06/17 03:09:08;;;;;;;11.60;10.43;;;;;;;10.36;74.03;101394.47;5042796;28;20385;-74
2023/06/17 03:11:33;;;;;;;14.23;10.63;;;;;;;10.43;74.70;101408.88;5050502;28;20028;-74
2023/06/17 03:13:58;;;;;;;12.18;10.93;;;;;;;10.65;74.43;101411.72;5041624;28;20025;-73
2023/06/17 03:16:24;;;;;;;;;;;;;;;10.57;74.55;101401.03;5051372;28;20029;-77
2023/06/17 03:18:49;;;;;;;11.18;9.98;;;;;;;10.53;74.33;101397.03;5032468;28;19917;-77
2023/06/17 03:21:15;;;;;;;11.75;10.10;;;;;;;10.45;74.31;101401.47;5047334;28;20049;-76
2023/06/17 03:23:40;;;;;;;;;;;;;;;10.33;75.12;101397.50;5046189;28;20032;-76
2023/06/17 03:26:06;;;;;;;18.17;11.10;;;;;;;10.37;75.15;101390.75;5041919;28;19917;-77
2023/06/17 03:28:32;;;;;;;12.07;10.60;;;;;;;10.58;75.04;101389.25;5050305;28;20103;-77
2023/06/17 03:30:57;;;;;;;13.70;10.77;;;;;;;10.79;74.21;101390.34;5051024;28;20559;-77
2023/06/17 03:33:22;;;;;;;14.35;10.70;;;;;;;10.72;74.40;101388.44;5046189;28;20033;-77
2023/06/17 03:35:48;;;;;;;13.75;10.90;;;;;;;10.62;74.47;101385.16;5050792;28;20025;-77
2023/06/17 03:38:13;;;;;;;14.13;11.07;;;;;;;10.61;74.82;101391.56;5051777;28;20434;-77
2023/06/17 03:40:39;;;;;;;;;;;;;;;10.74;74.54;101391.78;5046807;28;20036;-77
2023/06/17 03:43:04;;;;;;;11.33;9.93;;;;;;;10.92;74.03;101385.19;5037288;28;19924;-77
2023/06/17 03:45:30;;;;;;;12.65;9.27;;;;;;;10.89;73.67;101380.16;5049805;28;20295;-77
2023/06/17 03:47:57;;;;;;;17.70;12.50;;;;;;;10.85;74.17;101385.09;5050907;28;20036;-77
2023/06/17 03:50:22;;;;;;;14.25;11.52;;;;;;;10.76;74.74;101388.88;5046910;28;20079;-77
2023/06/17 03:52:47;;;;;;;12.82;10.90;;;;;;;10.74;74.85;101394.47;5046999;28;20468;-77
2023/06/17 03:55:13;;;;;;;13.73;11.15;;;;;;;10.74;75.61;101388.22;5050079;28;20033;-77
2023/06/17 03:57:38;;;;;;;14.10;11.57;;;;;;;10.76;75.62;101389.75;5044066;28;20017;-77
2023/06/17 04:00:06;;;;;;;17.48;11.35;;;;;;;10.79;75.60;101383.13;5051284;28;20033;-77
2023/06/17 04:02:31;;;;;;;12.48;10.07;;;;;;;10.85;75.27;101385.09;5033049;28;20036;-77
2023/06/17 04:04:58;;;;;;;16.90;12.38;;;;;;;10.94;74.85;101388.53;5047451;28;20384;-76
2023/06/17 04:07:23;;;;;;;12.38;11.07;;;;;;;11.02;74.71;101384.91;5051306;28;20123;-77
2023/06/17 04:09:49;;;;;;;16.02;11.95;;;;;;;11.11;74.04;101386.47;5051795;28;20051;-77
2023/06/17 04:12:16;;;;;;;14.57;11.30;;;;;;;11.23;74.35;101392.22;5045091;28;20117;-77
2023/06/17 04:14:41;;;;;;;15.10;11.75;;;;;;;11.30;74.28;101392.28;5051666;28;20039;-77
2023/06/17 04:17:06;;;;;;;12.52;11.23;;;;;;;11.33;74.10;101398.13;5051260;28;20032;-77
2023/06/17 04:19:37;;;;;;;13.35;11.65;;;;;;;11.44;73.56;101393.28;5047459;28;20033;-76
2023/06/17 04:22:05;;;;;;;14.65;11.73;;;;;;;11.54;73.34;101393.81;5049411;28;20047;-77
2023/06/17 04:24:31;;;;;;;14.02;10.75;;;;;;;11.70;73.49;101394.59;5048918;28;20104;-77
2023/06/17 04:26:57;;;;;;;14.50;11.75;;;;;;;12.06;73.04;101391.06;5050789;28;20029;-76
2023/06/17 04:29:22;;;;;;;14.75;12.10;;;;;;;12.22;72.20;101395.34;5044849;28;20021;-77
2023/06/17 04:31:49;;;;;;;16.50;12.52;;;;;;;12.36;71.85;101393.59;5043531;28;20560;-77
2023/06/17 04:34:21;;;;;;;13.07;11.57;;;;;;;12.65;71.80;101389.03;5053024;28;20063;-77
2023/06/17 04:36:56;;;;;;;14.32;11.98;;;;;;;13.72;68.21;101392.25;5043765;28;20033;-77
2023/06/17 04:39:26;;;;;;;13.82;12.40;;;;;;;14.63;64.37;101392.72;5042619;28;20144;-77
2023/06/17 04:41:52;;;;;;;11.05;9.82;;;;;;;15.90;60.78;101388.66;5048505;28;20025;-77
2023/06/17 04:44:17;;;;;;;13.05;10.40;;;;;;;17.09;56.63;101391.59;5052551;28;20085;-77
2023/06/17 04:46:43;;;;;;;17.38;12.30;;;;;;;17.12;56.05;101391.13;5050846;28;20024;-77
2023/06/17 04:49:09;;;;;;;16.33;12.60;;;;;;;17.45;54.98;101392.59;5049076;28;20017;-77
2023/06/17 04:51:38;;;;;;;17.30;13.30;;;;;;;17.93;53.42;101392.75;5052251;28;20086;-77
2023/06/17 04:54:05;;;;;;;14.30;12.85;;;;;;;18.13;52.89;101389.78;5051608;28;20472;-77
2023/06/17 04:56:30;;;;;;;15.93;13.27;;;;;;;17.98;52.70;101399.22;5026480;28;20490;-77
2023/06/17 04:58:56;;;;;;;13.48;12.05;;;;;;;18.82;51.07;101394.63;5048039;28;20087;-74
2023/06/17 05:01:21;;;;;;;12.52;11.23;;;;;;;19.64;48.72;101400.97;5048511;28;20060;-75
2023/06/17 05:03:46;;;;;;;15.55;12.93;;;;;;;19.66;47.82;101400.72;5051026;28;20033;-73
2023/06/17 05:06:12;;;;;;;14.70;12.60;;;;;;;19.09;49.59;101399.59;5043982;28;20368;-76
2023/06/17 05:08:37;;;;;;;14.05;12.65;;;;;;;18.44;50.99;101399.50;5042743;28;20038;-75
2023/06/17 05:11:03;;;;;;;15.05;12.15;;;;;;;19.22;50.39;101398.50;5043636;28;20753;-75
2023/06/17 05:13:28;;;;;;;16.85;13.55;;;;;;;20.10;47.81;101398.25;5043538;28;20029;-77
2023/06/17 05:15:53;;;;;;;16.52;12.63;;;;;;;19.90;48.28;101395.16;5049984;28;20094;-77
2023/06/17 05:18:19;;;;;;;14.20;12.23;;;;;;;20.18;48.38;101394.28;5057673;23;20572;-77
2023/06/17 05:20:44;;;;;;;18.02;13.07;;;;;;;20.74;47.26;101402.50;5046890;28;20041;-77
2023/06/17 05:23:09;;;;;;;13.20;11.85;;;;;;;21.70;44.62;101396.84;5045972;28;20024;-77
2023/06/17 05:25:35;;;;;;;13.38;11.70;;;;;;;20.89;46.43;101403.81;5051800;28;20444;-76
2023/06/17 05:28:00;;;;;;;14.48;12.65;;;;;;;20.90;47.06;101411.78;5051159;28;20029;-75
2023/06/17 05:30:29;;;;;;;18.67;11.98;;;;;;;20.73;47.58;101411.78;5046284;28;20039;-75
2023/06/17 05:32:54;;;;;;;13.02;11.13;;;;;;;21.53;45.71;101407.88;5048390;28;20469;-76
2023/06/17 05:35:20;;;;;;;15.05;12.18;;;;;;;21.77;45.17;101404.84;5048051;28;20020;-75
2023/06/17 05:37:48;;;;;;;12.45;11.10;;;;;;;22.04;44.51;101402.09;5050422;28;20111;-76
2023/06/17 05:40:13;;;;;;;14.70;11.20;;;;;;;22.65;43.23;101400.94;5047247;28;20116;-76
2023/06/17 05:42:39;;;;;;;12.63;9.82;;;;;;;23.51;41.75;101406.25;5046245;28;20732;-75
2023/06/17 05:45:05;;;;;;;12.75;11.45;;;;;;;23.20;41.88;101399.78;5048045;28;20029;-75
2023/06/17 05:47:30;;;;;;;14.23;11.55;;;;;;;22.88;42.93;101406.25;5048699;28;20033;-75
2023/06/17 05:49:55;;;;;;;12.85;11.10;;;;;;;23.85;40.61;101402.16;5047389;28;20028;-75
2023/06/17 05:52:21;;;;;;;12.27;10.55;;;;;;;23.95;40.65;101402.19;5052924;28;20040;-77
2023/06/17 05:54:46;;;;;;;12.18;10.98;;;;;;;23.64;41.43;101409.56;5049916;28;20132;-76
2023/06/17 05:57:12;;;;;;;13.48;12.07;;;;;;;23.94;40.74;101403.28;5052188;28;20104;-76
2023/06/17 05:59:37;;;;;;;13.30;11.77;;;;;;;23.31;42.51;101410.59;5046544;28;20033;-76
2023/06/17 06:02:03;;;;;;;14.25;11.68;;;;;;;23.22;43.06;101414.13;5047723;28;20029;-76
2023/06/17 06:04:28;;;;;;;12.60;11.15;;;;;;;24.09;42.04;101415.41;5043628;28;20029;-76
2023/06/17 06:06:54;;;;;;;13.00;11.80;;;;;;;24.15;42.06;101415.16;5046296;28;20397;-76
2023/06/17 06:09:19;;;;;;;11.68;10.48;;;;;;;24.34;41.64;101412.69;5040889;28;20033;-76
2023/06/17 06:11:45;;;;;;;13.23;10.50;;;;;;;24.81;41.10;101415.34;5047485;28;20469;-76
2023/06/17 06:14:10;;;;;;;14.60;9.63;;;;;;;25.23;40.30;101422.38;5050197;28;20031;-75
2023/06/17 06:16:42;;;;;;;11.38;10.35;;;;;;;25.23;40.49;101418.78;5044753;28;20095;-75
2023/06/17 06:19:07;;;;;;;12.57;10.32;;;;;;;25.15;41.15;101420.19;5047176;28;20496;-76
2023/06/17 06:21:32;;;;;;;12.98;9.63;;;;;;;25.36;40.59;101412.63;5051699;28;20085;-77
2023/06/17 06:23:59;;;;;;;12.02;10.82;;;;;;;25.59;40.07;101413.09;5046619;28;21270;-76
2023/06/17 06:26:25;;;;;;;13.60;11.43;;;;;;;25.08;41.01;101416.91;5048061;28;20020;-76
2023/06/17 06:28:50;;;;;;;15.38;11.20;;;;;;;24.94;41.60;101409.25;5053837;28;20032;-75
2023/06/17 06:31:17;;;;;;;11.23;10.23;;;;;;;25.45;40.30;101412.91;5048920;28;20473;-76
2023/06/17 06:33:42;;;;;;;8.80;7.95;;;;;;;26.62;38.78;101417.78;5042829;28;20037;-75
2023/06/17 06:36:08;;;;;;;8.70;7.80;;;;;;;27.76;36.45;101415.56;5048514;28;20017;-75
2023/06/17 06:38:34;;;;;;;10.95;9.95;;;;;;;26.30;38.91;101410.94;5049761;28;20032;-75
2023/06/17 06:41:01;;;;;;;11.38;10.20;;;;;;;26.29;38.95;101408.47;5047135;28;20495;-75
2023/06/17 06:43:32;;;;;;;10.40;9.40;;;;;;;26.67;38.48;101414.13;5041780;28;20032;-75
2023/06/17 06:45:57;;;;;;;10.73;9.60;;;;;;;26.41;39.03;101411.66;5048149;28;20082;-75
2023/06/17 06:48:23;;;;;;;12.10;10.15;;;;;;;26.41;39.17;101414.41;5049076;28;20036;-75
2023/06/17 06:50:48;;;;;;;10.52;9.50;;;;;;;27.33;37.43;101413.66;5037853;28;20472;-76
2023/06/17 06:53:13;;;;;;;12.93;9.55;;;;;;;28.14;35.70;101418.28;5048432;28;20025;-76
2023/06/17 06:55:41;;;;;;;10.68;8.63;;;;;;;27.34;36.99;101410.63;5048897;28;20033;-76
2023/06/17 06:58:07;;;;;;;9.80;8.80;;;;;;;27.55;35.99;101415.84;5038460;28;20056;-76
2023/06/17 07:00:32;;;;;;;8.45;7.60;;;;;;;26.85;36.68;101409.00;5039457;28;20029;-76
2023/06/17 07:02:57;;;;;;;7.22;6.53;;;;;;;28.14;34.09;101412.75;5037639;28;20052;-76
2023/06/17 07:05:23;;;;;;;10.50;7.70;;;;;;;27.32;35.02;101412.00;5045847;28;20030;-76
2023/06/17 07:07:48;;;;;;;7.97;7.00;;;;;;;26.84;35.24;101410.13;5045092;28;20028;-76
2023/06/17 07:10:14;;;;;;;8.90;7.97;;;;;;;27.21;35.08;101408.56;5048521;28;20039;-76
2023/06/17 07:12:40;;;;;;;7.63;6.68;;;;;;;27.76;34.25;101413.63;5042819;28;20469;-76
2023/06/17 07:15:06;;;;;;;8.13;7.38;;;;;;;27.68;34.83;101420.66;5049864;28;20110;-76
2023/06/17 07:17:31;;;;;;;8.00;7.20;;;;;;;28.42;33.57;101415.56;5010996;28;1043644;-76
2023/06/17 07:19:57;;;;;;;7.30;6.60;;;;;;;28.97;32.08;101423.16;5043226;28;20470;-76
2023/06/17 07:22:22;;;;;;;6.70;6.15;;;;;;;29.86;29.49;101422.88;5048082;28;20040;-76
2023/06/17 07:24:47;;;;;;;7.50;6.70;;;;;;;29.06;31.21;101423.25;5050129;28;20025;-76
2023/06/17 07:27:13;;;;;;;8.30;7.30;;;;;;;28.49;31.84;101423.50;5042280;28;20039;-76
2023/06/17 07:29:44;;;;;;;9.85;6.85;;;;;;;28.71;31.55;101420.03;5049909;28;20502;-75
2023/06/17 07:32:10;;;;;;;6.18;5.55;;;;;;;29.12;29.78;101415.63;5050875;28;20086;-76
2023/06/17 07:34:35;;;;;;;9.10;6.80;;;;;;;29.97;29.38;101412.38;5042133;28;20474;-76
2023/06/17 07:37:00;;;;;;;9.63;7.47;;;;;;;29.16;30.68;101416.66;5050866;28;20039;-76
2023/06/17 07:39:26;;;;;;;6.80;6.20;;;;;;;29.29;30.09;101415.81;5050411;28;20090;-76
2023/06/17 07:41:51;;;;;;;8.80;6.03;;;;;;;29.87;29.14;101416.19;5049225;28;20037;-76
2023/06/17 07:44:19;;;;;;;7.00;5.78;;;;;;;30.13;28.42;101415.56;5049978;28;20033;-76
2023/06/17 07:46:45;;;;;;;6.35;5.60;;;;;;;30.35;26.86;101408.34;5049994;28;20027;-76
2023/06/17 07:49:10;;;;;;;6.60;5.43;;;;;;;30.07;26.70;101406.53;5049849;28;20025;-76
2023/06/17 07:51:37;;;;;;;7.22;5.70;;;;;;;30.93;27.11;101414.81;5043271;28;20079;-76
2023/06/17 07:54:04;;;;;;;7.15;4.70;;;;;;;31.11;24.34;101414.84;5049796;28;20029;-76
2023/06/17 07:56:29;;;;;;;5.00;4.50;;;;;;;30.66;24.78;101422.25;5048481;28;20041;-76
2023/06/17 07:58:55;;;;;;;7.70;4.72;;;;;;;30.66;24.77;101422.25;5050640;28;20044;-76
2023/06/17 08:01:22;;;;;;;8.35;4.72;;;;;;;31.29;24.63;101413.75;5049660;28;20059;-76
2023/06/17 08:03:47;;;;;;;5.25;4.70;;;;;;;31.74;23.72;101411.84;5049782;28;20021;-76
2023/06/17 08:06:16;;;;;;;8.25;4.80;;;;;;;31.01;24.61;101410.41;5041489;28;20152;-76
2023/06/17 08:08:41;;;;;;;5.53;4.45;;;;;;;32.39;21.50;101411.91;5049151;28;20062;-76
2023/06/17 08:11:07;;;;;;;4.95;4.47;;;;;;;33.27;21.18;101405.88;5041614;28;20033;-76
2023/06/17 08:13:32;;;;;;;4.70;4.13;;;;;;;32.66;21.33;101401.44;5058675;23;20044;-76
2023/06/17 08:15:58;;;;;;;4.43;4.00;;;;;;;32.42;21.89;101394.53;5048317;28;20036;-76
2023/06/17 08:18:23;;;;;;;6.75;4.38;;;;;;;32.29;21.34;101393.59;5049555;28;20209;-76
2023/06/17 08:20:48;;;;;;;4.80;4.28;;;;;;;32.34;21.78;101403.72;5049949;28;20473;-76
2023/06/17 08:23:14;;;;;;;6.30;4.07;;;;;;;34.24;19.29;101410.63;5048077;28;20033;-76
2023/06/17 08:25:40;;;;;;;7.20;4.25;;;;;;;33.72;19.07;101407.19;5049491;28;20024;-76
2023/06/17 08:28:06;;;;;;;4.57;3.67;;;;;;;32.97;19.21;101397.56;5050103;28;20033;-76
2023/06/17 08:30:31;;;;;;;4.18;3.78;;;;;;;33.06;18.80;101389.13;5048880;28;20383;-76
2023/06/17 08:32:57;;;;;;;4.82;3.83;;;;;;;34.00;19.10;101393.47;5043369;28;20033;-76
2023/06/17 08:35:22;;;;;;;4.38;4.00;;;;;;;33.68;18.48;101392.28;5053204;28;20079;-77
2023/06/17 08:37:49;;;;;;;7.82;4.22;;;;;;;33.47;19.09;101397.88;5049524;28;20033;-76
2023/06/17 08:40:17;;;;;;;5.75;4.30;;;;;;;33.29;18.68;101392.41;5048419;28;20040;-77
2023/06/17 08:42:45;;;;;;;4.15;3.72;;;;;;;33.47;19.18;101392.31;5046293;28;20086;-76
2023/06/17 08:45:11;;;;;;;4.28;3.90;;;;;;;32.71;19.12;101398.47;5026292;28;20017;-76
2023/06/17 08:47:36;;;;;;;5.57;3.83;;;;;;;32.91;19.48;101388.59;5009712;28;20095;-76
2023/06/17 08:50:02;;;;;;;7.68;3.90;;;;;;;34.48;18.02;101386.72;5052333;28;20021;-76
2023/06/17 08:52:28;;;;;;;5.65;3.90;;;;;;;33.52;18.87;101389.31;5033789;28;20032;-76
2023/06/17 08:54:54;;;;;;;6.03;3.85;;;;;;;35.31;17.49;101386.50;5026769;28;20033;-76
2023/06/17 08:57:19;;;;;;;5.05;4.10;;;;;;;35.50;17.33;101391.50;5049265;28;20032;-76
2023/06/17 08:59:45;;;;;;;4.35;3.95;;;;;;;33.97;18.09;101387.78;5031206;28;20376;-76
2023/06/17 09:02:10;;;;;;;4.93;3.95;;;;;;;33.78;18.92;101389.06;5052315;28;20393;-76
2023/06/17 09:04:36;;;;;;;5.40;3.95;;;;;;;33.58;19.36;101381.53;5045690;28;20403;-76
2023/06/17 09:07:01;;;;;;;8.07;4.40;;;;;;;34.24;18.78;101375.09;5033860;28;20461;-76
2023/06/17 09:09:26;;;;;;;5.45;3.72;;;;;;;35.49;17.91;101378.66;5044395;28;20025;-76
2023/06/17 09:11:52;;;;;;;4.63;4.10;;;;;;;34.52;17.58;101385.66;5052492;28;20035;-76
2023/06/17 09:14:18;;;;;;;4.05;3.60;;;;;;;33.54;19.26;101371.06;5044159;28;20041;-75
2023/06/17 09:16:44;;;;;;;10.50;4.25;;;;;;;33.24;19.40;101378.66;5051681;28;20021;-76
2023/06/17 09:19:09;;;;;;;5.25;3.83;;;;;;;34.12;18.70;101372.31;5044189;28;20035;-76
2023/06/17 09:21:35;;;;;;;5.35;4.00;;;;;;;33.62;18.95;101380.50;5044948;28;20427;-76
2023/06/17 09:24:02;;;;;;;4.47;3.90;;;;;;;34.49;17.73;101377.97;5044040;28;20104;-76
2023/06/17 09:26:32;;;;;;;5.47;3.95;;;;;;;35.11;17.47;101375.16;5052506;28;20358;-76
2023/06/17 09:29:02;;;;;;;4.30;3.90;;;;;;;35.46;17.23;101383.00;5052206;28;20125;-76
2023/06/17 09:31:28;;;;;;;5.90;4.30;;;;;;;34.63;18.43;101374.81;5052353;28;20033;-75
2023/06/17 09:33:54;;;;;;;5.70;3.95;;;;;;;35.67;17.25;101387.56;5044994;28;20359;-76
2023/06/17 09:36:20;;;;;;;5.90;4.03;;;;;;;35.03;17.60;101379.72;5043399;28;20021;-76
2023/06/17 09:38:46;;;;;;;6.72;4.60;;;;;;;34.72;18.07;101383.91;5018265;28;20028;-76
2023/06/17 09:41:14;;;;;;;4.63;4.10;;;;;;;35.12;17.96;101387.97;5051081;28;20033;-76
2023/06/17 09:43:41;;;;;;;5.03;4.25;;;;;;;34.91;18.07;101380.50;5040635;28;20014;-75
2023/06/17 09:46:06;;;;;;;4.25;3.90;;;;;;;36.74;16.75;101384.31;5031240;28;20048;-76
2023/06/17 09:48:37;;;;;;;6.30;3.95;;;;;;;37.25;16.52;101391.91;5052251;28;20024;-75
2023/06/17 09:51:05;;;;;;;5.30;4.07;;;;;;;37.34;15.84;101391.69;5053292;28;20040;-76
2023/06/17 09:53:31;;;;;;;6.00;4.05;;;;;;;36.70;16.33;101387.03;5044496;28;20033;-77
2023/06/17 09:55:57;;;;;;;5.63;3.90;;;;;;;36.67;16.47;101377.38;5044285;28;20029;-76
2023/06/17 09:58:28;;;;;;;7.55;3.80;;;;;;;35.10;18.39;101381.91;5042054;28;20111;-76
2023/06/17 10:00:54;;;;;;;5.07;3.70;;;;;;;35.04;17.80;101380.50;5043887;28;20626;-76
2023/06/17 10:03:20;;;;;;;4.43;4.03;;;;;;;34.91;18.38;101380.50;5025859;28;20036;-76
2023/06/17 10:05:47;;;;;;;7.10;4.22;;;;;;;34.50;18.87;101381.59;5044383;28;20028;-76
2023/06/17 10:08:12;;;;;;;4.63;4.07;;;;;;;33.61;19.86;101378.88;5033223;28;20033;-76
2023/06/17 10:10:40;;;;;;;4.72;4.00;;;;;;;35.53;18.55;101375.97;5044116;28;20487;-75
2023/06/17 10:13:06;;;;;;;4.10;3.80;;;;;;;36.85;16.91;101376.97;5046637;28;20056;-76
2023/06/17 10:15:31;;;;;;;5.32;4.25;;;;;;;37.50;16.24;101372.78;5023092;28;20041;-76
2023/06/17 10:17:56;;;;;;;4.78;4.00;;;;;;;37.49;17.10;101373.97;5010983;28;20025;-76
2023/06/17 10:20:22;;;;;;;4.32;3.92;;;;;;;36.49;16.96;101368.53;5014140;28;20037;-76
2023/06/17 10:22:48;;;;;;;4.72;3.90;;;;;;;36.44;17.66;101370.75;5023718;28;20477;-76
2023/06/17 10:25:14;;;;;;;4.18;3.88;;;;;;;36.32;17.87;101366.06;5026142;28;20086;-76
2023/06/17 10:27:40;;;;;;;5.97;4.55;;;;;;;35.45;18.25;101370.16;5052521;28;20025;-76
2023/06/17 10:30:22;;;;;;;5.00;4.50;;;;;;;34.81;19.39;101364.19;5008166;28;20064;-76
2023/06/17 10:32:52;;;;;;;4.35;3.95;;;;;;;35.91;18.27;101360.59;5043473;28;20035;-77
2023/06/17 10:35:19;;;;;;;4.28;3.72;;;;;;;37.14;16.94;101360.78;5048673;28;20567;-76
2023/06/17 10:37:48;;;;;;;8.35;3.83;;;;;;;38.07;15.95;101363.84;5016090;28;20027;-76
2023/06/17 10:40:26;;;;;;;5.82;3.90;;;;;;;37.49;16.63;101364.75;5050331;28;20033;-76
2023/06/17 10:43:01;;;;;;;5.45;4.07;;;;;;;36.07;18.01;101364.25;5052240;28;20037;-76
2023/06/17 10:45:52;;;;;;;4.85;4.03;;;;;;;35.67;18.34;101353.94;5044508;28;20101;-76
2023/06/17 10:48:20;;;;;;;5.07;4.10;;;;;;;36.69;16.85;101346.16;5043864;28;20087;-76
2023/06/17 10:50:50;;;;;;;4.40;4.00;;;;;;;35.76;17.57;101342.59;5043053;28;20448;-76
2023/06/17 10:53:33;;;;;;;4.30;3.55;;;;;;;35.76;17.56;101337.81;5028360;28;20025;-76
2023/06/17 10:56:00;;;;;;;4.20;3.58;;;;;;;35.39;18.50;101342.75;5042347;28;20120;-75
2023/06/17 10:58:31;;;;;;;4.68;3.95;;;;;;;36.67;16.91;101340.91;5051361;28;20021;-76
2023/06/17 11:01:00;;;;;;;4.47;4.07;;;;;;;36.79;16.85;101340.00;5049033;28;20033;-75
2023/06/17 11:03:26;;;;;;;6.60;3.88;;;;;;;38.25;15.86;101343.66;5051108;28;20020;-75
2023/06/17 11:05:52;;;;;;;3.80;3.50;;;;;;;38.96;14.47;101343.16;5042209;28;20460;-75
2023/06/17 11:08:17;;;;;;;4.60;3.80;;;;;;;38.17;15.88;101337.09;5042684;28;20451;-76
2023/06/17 11:10:43;;;;;;;5.22;3.75;;;;;;;36.97;16.89;101333.97;5043657;28;20029;-75
2023/06/17 11:13:08;;;;;;;5.35;3.70;;;;;;;36.28;17.54;101329.53;5046801;28;21747;-75
2023/06/17 11:15:33;;;;;;;3.88;3.58;;;;;;;36.98;16.93;101336.41;5045380;28;20044;-75